sensor_id;sensor_type;location;lat;lon;timestamp;pressure;altitude;pressure_sealevel;temperature;humidity
56182;BME280;51963;46.052;14.544;2023-01-23T00:00:28;98826.50;;;1.14;100.00
56182;BME280;51963;46.052;14.544;2023-01-23T00:02:55;98827.94;;;1.29;100.00
56182;BME280;51963;46.052;14.544;2023-01-23T00:05:20;98828.88;;;1.40;100.00
56182;BME280;51963;46.052;14.544;2023-01-23T00:07:46;98822.72;;;1.29;100.00
56182;BME280;51963;46.052;14.544;2023-01-23T00:10:11;98813.03;;;1.43;100.00
56182;BME280;51963;46.052;14.544;2023-01-23T00:12:40;98811.38;;;1.42;100.00
56182;BME280;51963;46.052;14.544;2023-01-23T00:15:05;98813.25;;;1.40;100.00
56182;BME280;51963;46.052;14.544;2023-01-23T00:17:31;98806.38;;;1.16;100.00
56182;BME280;51963;46.052;14.544;2023-01-23T00:19:56;98801.97;;;1.16;100.00
56182;BME280;51963;46.052;14.544;2023-01-23T00:22:23;98795.59;;;1.21;100.00
56182;BME280;51963;46.052;14.544;2023-01-23T00:24:49;98787.69;;;1.34;100.00
56182;BME280;51963;46.052;14.544;2023-01-23T00:27:14;98787.91;;;1.30;100.00
56182;BME280;51963;46.052;14.544;2023-01-23T00:29:40;98783.19;;;1.24;100.00
56182;BME280;51963;46.052;14.544;2023-01-23T00:32:06;98767.53;;;1.36;100.00
56182;BME280;51963;46.052;14.544;2023-01-23T00:34:32;98755.00;;;1.18;100.00
56182;BME280;51963;46.052;14.544;2023-01-23T00:36:57;98730.59;;;1.19;100.00
56182;BME280;51963;46.052;14.544;2023-01-23T00:39:23;98727.63;;;1.35;100.00
56182;BME280;51963;46.052;14.544;2023-01-23T00:41:48;98719.94;;;1.34;100.00
56182;BME280;51963;46.052;14.544;2023-01-23T00:44:14;98707.38;;;1.39;100.00
56182;BME280;51963;46.052;14.544;2023-01-23T00:46:40;98696.47;;;1.45;100.00
56182;BME280;51963;46.052;14.544;2023-01-23T00:49:06;98708.56;;;1.46;100.00
56182;BME280;51963;46.052;14.544;2023-01-23T00:51:32;98707.38;;;1.39;100.00
56182;BME280;51963;46.052;14.544;2023-01-23T00:53:57;98719.47;;;1.17;100.00
56182;BME280;51963;46.052;14.544;2023-01-23T00:56:23;98713.78;;;1.00;100.00
56182;BME280;51963;46.052;14.544;2023-01-23T00:58:49;98717.91;;;1.03;100.00
56182;BME280;51963;46.052;14.544;2023-01-23T01:01:15;98714.75;;;0.99;100.00
56182;BME280;51963;46.052;14.544;2023-01-23T01:03:41;98713.53;;;0.81;100.00
56182;BME280;51963;46.052;14.544;2023-01-23T01:06:07;98698.28;;;0.99;100.00
56182;BME280;51963;46.052;14.544;2023-01-23T01:08:33;98698.16;;;0.89;100.00
56182;BME280;51963;46.052;14.544;2023-01-23T01:10:58;98688.81;;;0.86;100.00
56182;BME280;51963;46.052;14.544;2023-01-23T01:13:24;98681.84;;;0.76;100.00
56182;BME280;51963;46.052;14.544;2023-01-23T01:15:50;98663.94;;;0.94;100.00
56182;BME280;51963;46.052;14.544;2023-01-23T01:18:16;98674.03;;;1.10;100.00
56182;BME280;51963;46.052;14.544;2023-01-23T01:20:42;98668.44;;;0.92;100.00
56182;BME280;51963;46.052;14.544;2023-01-23T01:23:08;98669.63;;;0.87;100.00
56182;BME280;51963;46.052;14.544;2023-01-23T01:25:33;98662.91;;;1.08;100.00
56182;BME280;51963;46.052;14.544;2023-01-23T01:27:59;98657.22;;;1.14;100.00
56182;BME280;51963;46.052;14.544;2023-01-23T01:30:24;98658.63;;;1.07;100.00
56182;BME280;51963;46.052;14.544;2023-01-23T01:32:52;98663.63;;;0.98;100.00
56182;BME280;51963;46.052;14.544;2023-01-23T01:35:17;98657.22;;;0.80;100.00
56182;BME280;51963;46.052;14.544;2023-01-23T01:37:43;98664.66;;;0.73;100.00
56182;BME280;51963;46.052;14.544;2023-01-23T01:40:11;98664.66;;;0.73;100.00
56182;BME280;51963;46.052;14.544;2023-01-23T01:42:41;98670.72;;;0.73;100.00
56182;BME280;51963;46.052;14.544;2023-01-23T01:47:52;98674.59;;;0.79;100.00
56182;BME280;51963;46.052;14.544;2023-01-23T01:50:17;98671.91;;;0.81;100.00
56182;BME280;51963;46.052;14.544;2023-01-23T01:52:43;98675.78;;;0.98;100.00
56182;BME280;51963;46.052;14.544;2023-01-23T01:55:09;98684.78;;;1.05;100.00
56182;BME280;51963;46.052;14.544;2023-01-23T01:57:35;98677.69;;;1.07;100.00
56182;BME280;51963;46.052;14.544;2023-01-23T02:00:05;98683.25;;;1.02;100.00
56182;BME280;51963;46.052;14.544;2023-01-23T02:02:43;98685.63;;;1.06;100.00
56182;BME280;51963;46.052;14.544;2023-01-23T02:05:10;98672.94;;;1.12;100.00
56182;BME280;51963;46.052;14.544;2023-01-23T02:07:45;98660.88;;;1.00;100.00
56182;BME280;51963;46.052;14.544;2023-01-23T02:10:11;98669.28;;;1.04;100.00
56182;BME280;51963;46.052;14.544;2023-01-23T02:12:44;98660.75;;;1.13;100.00
56182;BME280;51963;46.052;14.544;2023-01-23T02:15:10;98661.44;;;1.26;100.00
56182;BME280;51963;46.052;14.544;2023-01-23T02:17:35;98658.13;;;1.36;100.00
56182;BME280;51963;46.052;14.544;2023-01-23T02:20:14;98650.03;;;1.50;100.00
56182;BME280;51963;46.052;14.544;2023-01-23T02:25:21;98646.69;;;1.59;100.00
56182;BME280;51963;46.052;14.544;2023-01-23T02:27:51;98641.97;;;1.53;100.00
56182;BME280;51963;46.052;14.544;2023-01-23T02:30:17;98635.56;;;1.57;100.00
56182;BME280;51963;46.052;14.544;2023-01-23T02:32:44;98636.66;;;1.43;100.00
56182;BME280;51963;46.052;14.544;2023-01-23T02:35:31;98638.41;;;1.54;100.00
56182;BME280;51963;46.052;14.544;2023-01-23T02:38:02;98636.25;;;1.59;100.00
56182;BME280;51963;46.052;14.544;2023-01-23T02:40:30;98633.66;;;1.59;100.00
56182;BME280;51963;46.052;14.544;2023-01-23T02:42:58;98633.91;;;1.56;100.00
56182;BME280;51963;46.052;14.544;2023-01-23T02:45:24;98635.63;;;1.67;100.00
56182;BME280;51963;46.052;14.544;2023-01-23T02:47:50;98633.13;;;1.77;100.00
56182;BME280;51963;46.052;14.544;2023-01-23T02:50:15;98638.66;;;1.84;100.00
56182;BME280;51963;46.052;14.544;2023-01-23T02:52:44;98627.91;;;1.77;100.00
56182;BME280;51963;46.052;14.544;2023-01-23T02:55:11;98623.75;;;1.74;100.00
56182;BME280;51963;46.052;14.544;2023-01-23T02:57:37;98622.69;;;1.77;100.00
56182;BME280;51963;46.052;14.544;2023-01-23T03:00:02;98621.09;;;1.86;100.00
56182;BME280;51963;46.052;14.544;2023-01-23T03:02:41;98630.50;;;1.77;100.00
56182;BME280;51963;46.052;14.544;2023-01-23T03:05:10;98622.13;;;1.95;100.00
56182;BME280;51963;46.052;14.544;2023-01-23T03:07:36;98613.72;;;1.91;100.00
56182;BME280;51963;46.052;14.544;2023-01-23T03:10:02;98623.91;;;1.94;100.00
56182;BME280;51963;46.052;14.544;2023-01-23T03:12:28;98612.41;;;1.97;100.00
56182;BME280;51963;46.052;14.544;2023-01-23T03:14:54;98611.75;;;1.83;100.00
56182;BME280;51963;46.052;14.544;2023-01-23T03:17:21;98616.28;;;1.81;100.00
56182;BME280;51963;46.052;14.544;2023-01-23T03:19:46;98609.66;;;1.98;100.00
56182;BME280;51963;46.052;14.544;2023-01-23T03:22:13;98598.91;;;1.92;100.00
56182;BME280;51963;46.052;14.544;2023-01-23T03:24:39;98594.00;;;1.98;100.00
56182;BME280;51963;46.052;14.544;2023-01-23T03:27:04;98602.28;;;1.82;100.00
56182;BME280;51963;46.052;14.544;2023-01-23T03:29:36;98598.03;;;1.81;100.00
56182;BME280;51963;46.052;14.544;2023-01-23T03:32:21;98599.09;;;1.79;100.00
56182;BME280;51963;46.052;14.544;2023-01-23T03:34:46;98600.31;;;1.96;100.00
56182;BME280;51963;46.052;14.544;2023-01-23T03:37:12;98595.72;;;1.67;100.00
56182;BME280;51963;46.052;14.544;2023-01-23T03:39:42;98598.78;;;1.72;100.00
56182;BME280;51963;46.052;14.544;2023-01-23T03:42:26;98598.03;;;1.81;100.00
56182;BME280;51963;46.052;14.544;2023-01-23T03:44:54;98603.53;;;1.88;100.00
56182;BME280;51963;46.052;14.544;2023-01-23T03:47:23;98597.53;;;1.87;100.00
56182;BME280;51963;46.052;14.544;2023-01-23T03:49:51;98590.72;;;1.75;100.00
56182;BME280;51963;46.052;14.544;2023-01-23T03:52:17;98587.91;;;1.67;100.00
56182;BME280;51963;46.052;14.544;2023-01-23T03:54:43;98587.59;;;1.81;100.00
56182;BME280;51963;46.052;14.544;2023-01-23T03:57:08;98582.63;;;1.78;100.00
56182;BME280;51963;46.052;14.544;2023-01-23T03:59:46;98577.53;;;1.76;100.00
56182;BME280;51963;46.052;14.544;2023-01-23T04:02:12;98581.28;;;1.63;100.00
56182;BME280;51963;46.052;14.544;2023-01-23T04:04:38;98584.13;;;1.59;100.00
56182;BME280;51963;46.052;14.544;2023-01-23T04:07:06;98574.63;;;1.70;100.00
56182;BME280;51963;46.052;14.544;2023-01-23T04:09:33;98568.69;;;1.68;100.00
56182;BME280;51963;46.052;14.544;2023-01-23T04:11:59;98564.69;;;1.64;100.00
56182;BME280;51963;46.052;14.544;2023-01-23T04:14:26;98562.44;;;1.59;100.00
56182;BME280;51963;46.052;14.544;2023-01-23T04:16:54;98566.19;;;1.45;100.00
56182;BME280;51963;46.052;14.544;2023-01-23T04:19:20;98563.28;;;1.59;100.00
56182;BME280;51963;46.052;14.544;2023-01-23T04:21:46;98566.16;;;1.56;100.00
56182;BME280;51963;46.052;14.544;2023-01-23T04:24:16;98565.69;;;1.51;100.00
56182;BME280;51963;46.052;14.544;2023-01-23T04:26:42;98557.50;;;1.23;100.00
56182;BME280;51963;46.052;14.544;2023-01-23T04:29:09;98560.97;;;1.45;100.00
56182;BME280;51963;46.052;14.544;2023-01-23T04:31:34;98552.16;;;1.57;100.00
56182;BME280;51963;46.052;14.544;2023-01-23T04:34:00;98551.91;;;1.60;100.00
56182;BME280;51963;46.052;14.544;2023-01-23T04:36:26;98546.03;;;1.47;100.00
56182;BME280;51963;46.052;14.544;2023-01-23T04:38:52;98553.22;;;1.34;100.00
56182;BME280;51963;46.052;14.544;2023-01-23T04:41:23;98542.28;;;1.40;100.00
56182;BME280;51963;46.052;14.544;2023-01-23T04:43:56;98548.66;;;1.47;100.00
56182;BME280;51963;46.052;14.544;2023-01-23T04:46:43;98546.75;;;1.49;100.00
56182;BME280;51963;46.052;14.544;2023-01-23T04:49:13;98540.03;;;1.35;100.00
56182;BME280;51963;46.052;14.544;2023-01-23T04:51:38;98533.97;;;1.46;100.00
56182;BME280;51963;46.052;14.544;2023-01-23T04:54:04;98539.84;;;1.59;100.00
56182;BME280;51963;46.052;14.544;2023-01-23T04:56:31;98545.66;;;1.52;100.00
56182;BME280;51963;46.052;14.544;2023-01-23T04:58:59;98539.19;;;1.46;100.00
56182;BME280;51963;46.052;14.544;2023-01-23T05:01:24;98549.91;;;1.53;100.00
56182;BME280;51963;46.052;14.544;2023-01-23T05:03:55;98551.47;;;1.55;100.00
56182;BME280;51963;46.052;14.544;2023-01-23T05:06:21;98540.03;;;1.68;100.00
56182;BME280;51963;46.052;14.544;2023-01-23T05:08:47;98533.41;;;1.64;100.00
56182;BME280;51963;46.052;14.544;2023-01-23T05:11:20;98549.63;;;1.67;100.00
56182;BME280;51963;46.052;14.544;2023-01-23T05:13:46;98551.59;;;1.75;100.00
56182;BME280;51963;46.052;14.544;2023-01-23T05:16:12;98548.03;;;1.76;100.00
56182;BME280;51963;46.052;14.544;2023-01-23T05:18:58;98556.31;;;1.81;100.00
56182;BME280;51963;46.052;14.544;2023-01-23T05:21:25;98553.69;;;1.81;100.00
56182;BME280;51963;46.052;14.544;2023-01-23T05:23:51;98556.00;;;1.96;100.00
56182;BME280;51963;46.052;14.544;2023-01-23T05:26:19;98562.16;;;1.95;100.00
56182;BME280;51963;46.052;14.544;2023-01-23T05:28:44;98567.63;;;1.92;100.00
56182;BME280;51963;46.052;14.544;2023-01-23T05:31:10;98567.03;;;1.88;100.00
56182;BME280;51963;46.052;14.544;2023-01-23T05:33:41;98558.00;;;1.92;100.00
56182;BME280;51963;46.052;14.544;2023-01-23T05:36:07;98565.72;;;1.94;100.00
56182;BME280;51963;46.052;14.544;2023-01-23T05:38:32;98563.31;;;2.02;100.00
56182;BME280;51963;46.052;14.544;2023-01-23T05:40:58;98564.69;;;2.06;100.00
56182;BME280;51963;46.052;14.544;2023-01-23T05:43:46;98569.66;;;2.09;100.00
56182;BME280;51963;46.052;14.544;2023-01-23T05:46:40;98568.78;;;1.99;100.00
56182;BME280;51963;46.052;14.544;2023-01-23T05:49:07;98568.00;;;2.08;100.00
56182;BME280;51963;46.052;14.544;2023-01-23T05:51:33;98582.88;;;1.96;100.00
56182;BME280;51963;46.052;14.544;2023-01-23T05:53:59;98573.59;;;1.82;100.00
56182;BME280;51963;46.052;14.544;2023-01-23T05:56:25;98571.31;;;1.68;100.00
56182;BME280;51963;46.052;14.544;2023-01-23T05:59:14;98583.19;;;1.60;100.00
56182;BME280;51963;46.052;14.544;2023-01-23T06:02:02;98581.31;;;1.51;100.00
56182;BME280;51963;46.052;14.544;2023-01-23T06:04:48;98575.28;;;1.51;100.00
56182;BME280;51963;46.052;14.544;2023-01-23T06:07:36;98582.22;;;1.29;100.00
56182;BME280;51963;46.052;14.544;2023-01-23T06:10:06;98585.69;;;1.18;100.00
56182;BME280;51963;46.052;14.544;2023-01-23T06:12:32;98577.78;;;1.08;100.00
56182;BME280;51963;46.052;14.544;2023-01-23T06:14:57;98586.22;;;1.00;100.00
56182;BME280;51963;46.052;14.544;2023-01-23T06:17:23;98588.66;;;1.13;100.00
56182;BME280;51963;46.052;14.544;2023-01-23T06:19:50;98581.72;;;1.02;100.00
56182;BME280;51963;46.052;14.544;2023-01-23T06:22:15;98590.09;;;1.06;100.00
56182;BME280;51963;46.052;14.544;2023-01-23T06:25:10;98581.94;;;0.99;100.00
56182;BME280;51963;46.052;14.544;2023-01-23T06:27:36;98588.91;;;0.99;100.00
56182;BME280;51963;46.052;14.544;2023-01-23T06:30:05;98582.44;;;0.93;100.00
56182;BME280;51963;46.052;14.544;2023-01-23T06:32:35;98582.91;;;0.87;100.00
56182;BME280;51963;46.052;14.544;2023-01-23T06:35:03;98593.56;;;0.84;100.00
56182;BME280;51963;46.052;14.544;2023-01-23T06:37:33;98596.63;;;0.89;100.00
56182;BME280;51963;46.052;14.544;2023-01-23T06:39:58;98589.88;;;0.98;100.00
56182;BME280;51963;46.052;14.544;2023-01-23T06:42:24;98591.88;;;1.06;100.00
56182;BME280;51963;46.052;14.544;2023-01-23T06:44:51;98594.34;;;1.07;100.00
56182;BME280;51963;46.052;14.544;2023-01-23T06:47:18;98604.88;;;1.17;100.00
56182;BME280;51963;46.052;14.544;2023-01-23T06:49:50;98603.94;;;1.18;100.00
56182;BME280;51963;46.052;14.544;2023-01-23T06:52:16;98601.56;;;1.15;100.00
56182;BME280;51963;46.052;14.544;2023-01-23T06:54:44;98611.34;;;1.23;100.00
56182;BME280;51963;46.052;14.544;2023-01-23T06:57:10;98613.84;;;1.36;100.00
56182;BME280;51963;46.052;14.544;2023-01-23T06:59:37;98608.69;;;1.45;100.00
56182;BME280;51963;46.052;14.544;2023-01-23T07:02:07;98613.09;;;1.45;100.00
56182;BME280;51963;46.052;14.544;2023-01-23T07:04:41;98608.59;;;1.68;100.00
56182;BME280;51963;46.052;14.544;2023-01-23T07:07:06;98612.06;;;1.69;100.00
56182;BME280;51963;46.052;14.544;2023-01-23T07:09:32;98618.28;;;1.78;100.00
56182;BME280;51963;46.052;14.544;2023-01-23T07:12:21;98615.13;;;1.74;100.00
56182;BME280;51963;46.052;14.544;2023-01-23T07:14:46;98630.22;;;1.92;100.00
56182;BME280;51963;46.052;14.544;2023-01-23T07:17:16;98621.88;;;1.98;100.00
56182;BME280;51963;46.052;14.544;2023-01-23T07:19:41;98622.25;;;1.93;100.00
56182;BME280;51963;46.052;14.544;2023-01-23T07:22:11;98621.38;;;2.04;100.00
56182;BME280;51963;46.052;14.544;2023-01-23T07:24:36;98620.78;;;2.00;100.00
56182;BME280;51963;46.052;14.544;2023-01-23T07:27:02;98631.09;;;2.02;100.00
56182;BME280;51963;46.052;14.544;2023-01-23T07:29:27;98634.88;;;2.09;100.00
56182;BME280;51963;46.052;14.544;2023-01-23T07:31:53;98643.94;;;1.94;100.00
56182;BME280;51963;46.052;14.544;2023-01-23T07:34:19;98644.50;;;1.97;100.00
56182;BME280;51963;46.052;14.544;2023-01-23T07:36:44;98648.16;;;2.06;100.00
56182;BME280;51963;46.052;14.544;2023-01-23T07:39:10;98650.06;;;2.04;100.00
56182;BME280;51963;46.052;14.544;2023-01-23T07:41:35;98660.00;;;2.10;100.00
56182;BME280;51963;46.052;14.544;2023-01-23T07:44:05;98658.59;;;2.06;100.00
56182;BME280;51963;46.052;14.544;2023-01-23T07:46:31;98653.38;;;2.27;100.00
56182;BME280;51963;46.052;14.544;2023-01-23T07:48:56;98656.53;;;2.10;100.00
56182;BME280;51963;46.052;14.544;2023-01-23T07:51:22;98665.06;;;2.12;100.00
56182;BME280;51963;46.052;14.544;2023-01-23T07:53:48;98673.66;;;2.02;100.00
56182;BME280;51963;46.052;14.544;2023-01-23T07:56:13;98667.41;;;1.94;100.00
56182;BME280;51963;46.052;14.544;2023-01-23T07:58:38;98665.25;;;1.99;100.00
56182;BME280;51963;46.052;14.544;2023-01-23T08:01:08;98678.50;;;2.07;100.00
56182;BME280;51963;46.052;14.544;2023-01-23T08:03:34;98679.22;;;2.09;100.00
56182;BME280;51963;46.052;14.544;2023-01-23T08:06:01;98676.09;;;2.15;100.00
56182;BME280;51963;46.052;14.544;2023-01-23T08:08:27;98677.09;;;2.24;100.00
56182;BME280;51963;46.052;14.544;2023-01-23T08:10:53;98674.38;;;2.26;100.00
56182;BME280;51963;46.052;14.544;2023-01-23T08:13:18;98684.63;;;2.17;100.00
56182;BME280;51963;46.052;14.544;2023-01-23T08:15:44;98685.63;;;2.26;100.00
56182;BME280;51963;46.052;14.544;2023-01-23T08:18:10;98692.69;;;2.14;100.00
56182;BME280;51963;46.052;14.544;2023-01-23T08:20:36;98691.03;;;2.13;100.00
56182;BME280;51963;46.052;14.544;2023-01-23T08:23:01;98684.94;;;2.24;100.00
56182;BME280;51963;46.052;14.544;2023-01-23T08:25:27;98679.59;;;2.26;100.00
56182;BME280;51963;46.052;14.544;2023-01-23T08:27:52;98687.88;;;2.31;100.00
56182;BME280;51963;46.052;14.544;2023-01-23T08:30:17;98685.00;;;2.34;100.00
56182;BME280;51963;46.052;14.544;2023-01-23T08:32:43;98692.59;;;2.37;100.00
56182;BME280;51963;46.052;14.544;2023-01-23T08:35:08;98680.75;;;2.33;100.00
56182;BME280;51963;46.052;14.544;2023-01-23T08:37:34;98694.25;;;2.38;100.00
56182;BME280;51963;46.052;14.544;2023-01-23T08:40:01;98698.88;;;2.34;100.00
56182;BME280;51963;46.052;14.544;2023-01-23T08:42:26;98700.84;;;2.42;100.00
56182;BME280;51963;46.052;14.544;2023-01-23T08:44:52;98701.56;;;2.44;100.00
56182;BME280;51963;46.052;14.544;2023-01-23T08:47:18;98698.44;;;2.51;100.00
56182;BME280;51963;46.052;14.544;2023-01-23T08:49:43;98706.72;;;2.56;100.00
56182;BME280;51963;46.052;14.544;2023-01-23T08:52:09;98701.50;;;2.56;100.00
56182;BME280;51963;46.052;14.544;2023-01-23T08:54:34;98698.75;;;2.57;100.00
56182;BME280;51963;46.052;14.544;2023-01-23T08:57:00;98700.41;;;2.58;100.00
56182;BME280;51963;46.052;14.544;2023-01-23T08:59:26;98699.59;;;2.58;100.00
56182;BME280;51963;46.052;14.544;2023-01-23T09:01:52;98703.41;;;2.54;100.00
56182;BME280;51963;46.052;14.544;2023-01-23T09:04:17;98707.00;;;2.62;100.00
56182;BME280;51963;46.052;14.544;2023-01-23T09:06:43;98701.50;;;2.56;100.00
56182;BME280;51963;46.052;14.544;2023-01-23T09:09:09;98704.88;;;2.68;100.00
56182;BME280;51963;46.052;14.544;2023-01-23T09:11:34;98696.63;;;2.72;100.00
56182;BME280;51963;46.052;14.544;2023-01-23T09:14:00;98697.06;;;2.77;100.00
56182;BME280;51963;46.052;14.544;2023-01-23T09:16:25;98707.00;;;2.84;100.00
56182;BME280;51963;46.052;14.544;2023-01-23T09:18:51;98705.78;;;2.88;100.00
56182;BME280;51963;46.052;14.544;2023-01-23T09:21:18;98699.50;;;2.90;100.00
56182;BME280;51963;46.052;14.544;2023-01-23T09:23:44;98698.72;;;3.00;100.00
56182;BME280;51963;46.052;14.544;2023-01-23T09:26:10;98703.25;;;3.07;100.00
56182;BME280;51963;46.052;14.544;2023-01-23T09:28:37;98693.06;;;3.04;100.00
56182;BME280;51963;46.052;14.544;2023-01-23T09:31:05;98703.69;;;3.13;100.00
56182;BME280;51963;46.052;14.544;2023-01-23T09:33:32;98700.13;;;3.14;100.00
56182;BME280;51963;46.052;14.544;2023-01-23T09:35:57;98689.66;;;3.14;100.00
56182;BME280;51963;46.052;14.544;2023-01-23T09:38:23;98697.34;;;3.05;100.00
56182;BME280;51963;46.052;14.544;2023-01-23T09:40:49;98694.19;;;3.12;100.00
56182;BME280;51963;46.052;14.544;2023-01-23T09:45:42;98695.16;;;3.11;100.00
56182;BME280;51963;46.052;14.544;2023-01-23T09:48:26;98695.16;;;3.11;100.00
56182;BME280;51963;46.052;14.544;2023-01-23T09:50:54;98700.13;;;3.14;100.00
56182;BME280;51963;46.052;14.544;2023-01-23T09:53:22;98693.69;;;3.18;100.00
56182;BME280;51963;46.052;14.544;2023-01-23T09:55:55;98698.34;;;3.14;100.00
56182;BME280;51963;46.052;14.544;2023-01-23T09:58:42;98704.22;;;3.06;100.00
56182;BME280;51963;46.052;14.544;2023-01-23T10:01:11;98701.41;;;3.19;100.00
56182;BME280;51963;46.052;14.544;2023-01-23T10:03:37;98700.03;;;3.25;100.00
56182;BME280;51963;46.052;14.544;2023-01-23T10:06:25;98699.88;;;3.17;100.00
56182;BME280;51963;46.052;14.544;2023-01-23T10:11:29;98697.41;;;3.15;100.00
56182;BME280;51963;46.052;14.544;2023-01-23T10:21:31;98706.78;;;3.28;100.00
56182;BME280;51963;46.052;14.544;2023-01-23T10:24:12;98707.44;;;3.20;100.00
56182;BME280;51963;46.052;14.544;2023-01-23T10:26:42;98719.53;;;3.21;100.00
56182;BME280;51963;46.052;14.544;2023-01-23T10:29:29;98717.38;;;3.26;100.00
56182;BME280;51963;46.052;14.544;2023-01-23T10:31:57;98711.97;;;3.18;100.00
56182;BME280;51963;46.052;14.544;2023-01-23T10:34:27;98722.84;;;3.23;100.00
56182;BME280;51963;46.052;14.544;2023-01-23T10:37:01;98730.69;;;3.23;100.00
56182;BME280;51963;46.052;14.544;2023-01-23T10:42:31;98741.16;;;3.23;100.00
56182;BME280;51963;46.052;14.544;2023-01-23T10:44:57;98727.91;;;3.15;100.00
56182;BME280;51963;46.052;14.544;2023-01-23T10:47:24;98727.78;;;3.16;100.00
56182;BME280;51963;46.052;14.544;2023-01-23T10:49:51;98730.53;;;3.15;100.00
56182;BME280;51963;46.052;14.544;2023-01-23T10:54:55;98731.22;;;3.17;100.00
56182;BME280;51963;46.052;14.544;2023-01-23T10:57:28;98735.03;;;3.03;100.00
56182;BME280;51963;46.052;14.544;2023-01-23T11:00:05;98727.91;;;3.15;100.00
56182;BME280;51963;46.052;14.544;2023-01-23T11:05:00;98734.00;;;3.25;100.00
56182;BME280;51963;46.052;14.544;2023-01-23T11:07:27;98729.88;;;3.22;100.00
56182;BME280;51963;46.052;14.544;2023-01-23T11:12:29;98730.09;;;3.10;100.00
56182;BME280;51963;46.052;14.544;2023-01-23T11:17:39;98726.50;;;3.11;100.00
56182;BME280;51963;46.052;14.544;2023-01-23T11:25:32;98739.66;;;2.99;100.00
56182;BME280;51963;46.052;14.544;2023-01-23T11:28:00;98743.22;;;2.98;100.00
56182;BME280;51963;46.052;14.544;2023-01-23T11:30:34;98735.53;;;2.97;100.00
56182;BME280;51963;46.052;14.544;2023-01-23T11:37:55;98736.84;;;2.81;100.00
56182;BME280;51963;46.052;14.544;2023-01-23T11:40:21;98742.69;;;2.73;100.00
56182;BME280;51963;46.052;14.544;2023-01-23T11:42:47;98739.56;;;2.79;100.00
56182;BME280;51963;46.052;14.544;2023-01-23T11:45:13;98750.00;;;2.79;100.00
56182;BME280;51963;46.052;14.544;2023-01-23T11:53:17;98750.78;;;2.70;100.00
56182;BME280;51963;46.052;14.544;2023-01-23T12:11:25;98761.59;;;2.44;100.00
56182;BME280;51963;46.052;14.544;2023-01-23T12:13:48;98766.59;;;2.36;100.00
56182;BME280;51963;46.052;14.544;2023-01-23T12:16:22;98767.06;;;2.41;100.00
56182;BME280;51963;46.052;14.544;2023-01-23T12:21:32;98772.53;;;2.38;100.00
56182;BME280;51963;46.052;14.544;2023-01-23T12:26:50;98781.88;;;2.41;100.00
56182;BME280;51963;46.052;14.544;2023-01-23T12:34:25;98793.06;;;2.31;100.00
56182;BME280;51963;46.052;14.544;2023-01-23T12:47:39;98811.53;;;2.07;100.00
56182;BME280;51963;46.052;14.544;2023-01-23T12:50:20;98819.47;;;2.05;100.00
56182;BME280;51963;46.052;14.544;2023-01-23T12:52:49;98822.31;;;2.02;100.00
56182;BME280;51963;46.052;14.544;2023-01-23T12:55:18;98821.75;;;1.99;100.00
56182;BME280;51963;46.052;14.544;2023-01-23T12:57:45;98828.16;;;1.95;100.00
56182;BME280;51963;46.052;14.544;2023-01-23T13:05:33;98837.41;;;1.87;100.00
56182;BME280;51963;46.052;14.544;2023-01-23T13:13:29;98842.97;;;1.83;100.00
56182;BME280;51963;46.052;14.544;2023-01-23T13:16:28;98846.66;;;1.80;100.00
56182;BME280;51963;46.052;14.544;2023-01-23T13:18:51;98848.53;;;1.89;100.00
56182;BME280;51963;46.052;14.544;2023-01-23T13:21:35;98849.13;;;1.82;100.00
56182;BME280;51963;46.052;14.544;2023-01-23T13:27:30;98862.31;;;1.69;100.00
56182;BME280;51963;46.052;14.544;2023-01-23T13:29:49;98863.97;;;1.58;100.00
56182;BME280;51963;46.052;14.544;2023-01-23T13:32:18;98874.16;;;1.50;100.00
56182;BME280;51963;46.052;14.544;2023-01-23T13:34:44;98871.78;;;1.47;100.00
56182;BME280;51963;46.052;14.544;2023-01-23T13:42:39;98884.34;;;1.53;100.00
56182;BME280;51963;46.052;14.544;2023-01-23T13:50:34;98887.88;;;1.41;100.00
56182;BME280;51963;46.052;14.544;2023-01-23T13:53:19;98893.31;;;1.38;100.00
56182;BME280;51963;46.052;14.544;2023-01-23T13:56:06;98893.09;;;1.41;100.00
56182;BME280;51963;46.052;14.544;2023-01-23T13:58:55;98898.28;;;1.41;100.00
56182;BME280;51963;46.052;14.544;2023-01-23T14:01:21;98898.53;;;1.38;100.00
56182;BME280;51963;46.052;14.544;2023-01-23T14:04:12;98909.41;;;1.31;100.00
56182;BME280;51963;46.052;14.544;2023-01-23T14:07:00;98915.56;;;1.30;100.00
56182;BME280;51963;46.052;14.544;2023-01-23T14:09:29;98913.53;;;1.34;100.00
56182;BME280;51963;46.052;14.544;2023-01-23T14:11:56;98923.59;;;1.27;100.00
56182;BME280;51963;46.052;14.544;2023-01-23T14:14:22;98922.91;;;1.25;100.00
56182;BME280;51963;46.052;14.544;2023-01-23T14:17:06;98923.44;;;1.17;100.00
56182;BME280;51963;46.052;14.544;2023-01-23T14:19:32;98935.91;;;1.25;100.00
56182;BME280;51963;46.052;14.544;2023-01-23T14:22:02;98939.47;;;1.24;100.00
56182;BME280;51963;46.052;14.544;2023-01-23T14:24:47;98935.66;;;1.17;100.00
56182;BME280;51963;46.052;14.544;2023-01-23T14:27:20;98945.34;;;1.15;100.00
56182;BME280;51963;46.052;14.544;2023-01-23T14:29:56;98947.34;;;1.11;100.00
56182;BME280;51963;46.052;14.544;2023-01-23T14:32:22;98944.03;;;1.09;100.00
56182;BME280;51963;46.052;14.544;2023-01-23T14:34:48;98948.91;;;1.14;100.00
56182;BME280;51963;46.052;14.544;2023-01-23T14:37:14;98946.78;;;1.19;100.00
56182;BME280;51963;46.052;14.544;2023-01-23T14:39:42;98953.22;;;1.26;100.00
56182;BME280;51963;46.052;14.544;2023-01-23T14:42:12;98961.63;;;1.30;100.00
56182;BME280;51963;46.052;14.544;2023-01-23T14:44:44;98968.72;;;1.28;100.00
56182;BME280;51963;46.052;14.544;2023-01-23T14:47:22;98971.22;;;1.29;100.00